EHL weather

El Bolson Airport
El Bolson, Río Negro Province, Argentina

Public forecast

Using degrees Celsius for public forecast. Weather courtesy of forecast.io.

Closest aviation weather report (METAR) to El Bolson Airport

Closest report is San Carlos De Bariloche Airport, 50.4 nm (93.4 km) NNE. Retrieved 2019/10/17 14:00 UTC (43 minutes ago):

SAZS 171400Z 30016KT 9999 FEW048 09/M03 Q1020

Closest aviation forecast (TAF) to El Bolson Airport

Closest forecast is San Carlos De Bariloche Airport, 50.4 nm (93.4 km) NNE. Retrieved 2019/10/17 12:00 UTC (3 hours ago):

TAF SAZS 171100Z 1712/1812 29010KT 9999 SCT045 TX13/1719Z TN01/1809Z TEMPO 1713/1715 29015KT 9999 FEW040 BECMG 1722/1724 VRB03KT CAVOK BECMG 1805/1807 12005KT 9999 FEW020